地図

経路データ

SID SEASON NUMBER BASIN SUBBASIN NAME ISO_TIME NATURE LAT LON WMO_WIND WMO_PRES WMO_AGENCY TRACK_TYPE DIST2LAND LANDFALL IFLAG USA_AGENCY USA_ATCF_ID USA_LAT USA_LON USA_RECORD USA_STATUS USA_WIND USA_PRES USA_SSHS USA_R34_NE USA_R34_SE USA_R34_SW USA_R34_NW USA_R50_NE USA_R50_SE USA_R50_SW USA_R50_NW USA_R64_NE USA_R64_SE USA_R64_SW USA_R64_NW USA_POCI USA_ROCI USA_RMW USA_EYE TOKYO_LAT TOKYO_LON TOKYO_GRADE TOKYO_WIND TOKYO_PRES TOKYO_R50_DIR TOKYO_R50_LONG TOKYO_R50_SHORT TOKYO_R30_DIR TOKYO_R30_LONG TOKYO_R30_SHORT TOKYO_LAND CMA_LAT CMA_LON CMA_CAT CMA_WIND CMA_PRES HKO_LAT HKO_LON HKO_CAT HKO_WIND HKO_PRES NEWDELHI_LAT NEWDELHI_LON NEWDELHI_GRADE NEWDELHI_WIND NEWDELHI_PRES NEWDELHI_CI NEWDELHI_DP NEWDELHI_POCI REUNION_LAT REUNION_LON REUNION_TYPE REUNION_WIND REUNION_PRES REUNION_TNUM REUNION_CI REUNION_RMW REUNION_R34_NE REUNION_R34_SE REUNION_R34_SW REUNION_R34_NW REUNION_R50_NE REUNION_R50_SE REUNION_R50_SW REUNION_R50_NW REUNION_R64_NE REUNION_R64_SE REUNION_R64_SW REUNION_R64_NW BOM_LAT BOM_LON BOM_TYPE BOM_WIND BOM_PRES BOM_TNUM BOM_CI BOM_RMW BOM_R34_NE BOM_R34_SE BOM_R34_SW BOM_R34_NW BOM_R50_NE BOM_R50_SE BOM_R50_SW BOM_R50_NW BOM_R64_NE BOM_R64_SE BOM_R64_SW BOM_R64_NW BOM_ROCI BOM_POCI BOM_EYE BOM_POS_METHOD BOM_PRES_METHOD NADI_LAT NADI_LON NADI_CAT NADI_WIND NADI_PRES WELLINGTON_LAT WELLINGTON_LON WELLINGTON_WIND WELLINGTON_PRES DS824_LAT DS824_LON DS824_STAGE DS824_WIND DS824_PRES TD9636_LAT TD9636_LON TD9636_STAGE TD9636_WIND TD9636_PRES TD9635_LAT TD9635_LON TD9635_WIND TD9635_PRES TD9635_ROCI NEUMANN_LAT NEUMANN_LON NEUMANN_CLASS NEUMANN_WIND NEUMANN_PRES MLC_LAT MLC_LON MLC_CLASS MLC_WIND MLC_PRES USA_GUST BOM_GUST BOM_GUST_PER REUNION_GUST REUNION_GUST_PER USA_SEAHGT USA_SEARAD_NE USA_SEARAD_SE USA_SEARAD_SW USA_SEARAD_NW STORM_SPEED STORM_DIR
1910011S16066 1910 4 SI MM NOT_NAMED 1910-01-11 06:00:00 NR -15.6000 65.6000 reunion main 975 966 _____O________ -1 -15.6000 65.6000 99 9.90000 1 254
1910011S16066 1910 4 SI MM NOT_NAMED 1910-01-11 09:00:00 NR -15.6191 65.5344 main 966 966 _____P________ -1 -15.6191 65.5344 99 1 252
1910011S16066 1910 4 SI MM NOT_NAMED 1910-01-11 12:00:00 NR -15.6423 65.4607 main 966 951 _____P________ -1 -15.6423 65.4607 99 2 251
1910011S16066 1910 4 SI MM NOT_NAMED 1910-01-11 15:00:00 NR -15.6738 65.3711 main 951 942 _____P________ -1 -15.6738 65.3711 99 2 249
1910011S16066 1910 4 SI MM NOT_NAMED 1910-01-11 18:00:00 NR -15.7178 65.2574 main 942 918 _____P________ -1 -15.7178 65.2574 99 3 247
1910011S16066 1910 4 SI MM NOT_NAMED 1910-01-11 21:00:00 NR -15.7783 65.1115 main 918 894 _____P________ -1 -15.7783 65.1115 99 4 246
1910011S16066 1910 4 SI MM NOT_NAMED 1910-01-12 00:00:00 NR -15.8595 64.9255 main 894 870 _____P________ -1 -15.8595 64.9255 99 4 245
1910011S16066 1910 4 SI MM NOT_NAMED 1910-01-12 03:00:00 NR -15.9654 64.6910 main 870 837 _____P________ -1 -15.9654 64.6910 99 6 245
1910011S16066 1910 4 SI MM NOT_NAMED 1910-01-12 06:00:00 NR -16.1000 64.4000 reunion main 837 798 _____O________ -1 -16.1000 64.4000 99 9.90000 7 244
1910011S16066 1910 4 SI MM NOT_NAMED 1910-01-12 09:00:00 NR -16.2655 64.0472 main 789 756 _____P________ -1 -16.2655 64.0472 99 8 244
1910011S16066 1910 4 SI MM NOT_NAMED 1910-01-12 12:00:00 NR -16.4571 63.6406 main 741 693 _____P________ -1 -16.4571 63.6406 99 9 244
1910011S16066 1910 4 SI MM NOT_NAMED 1910-01-12 15:00:00 NR -16.6684 63.1913 main 693 637 _____P________ -1 -16.6684 63.1913 99 10 244
1910011S16066 1910 4 SI MM NOT_NAMED 1910-01-12 18:00:00 NR -16.8931 62.7104 main 637 580 _____P________ -1 -16.8931 62.7104 99 10 244
1910011S16066 1910 4 SI MM NOT_NAMED 1910-01-12 21:00:00 NR -17.1247 62.2094 main 580 524 _____P________ -1 -17.1247 62.2094 99 11 244
1910011S16066 1910 4 SI MM NOT_NAMED 1910-01-13 00:00:00 NR -17.3571 61.6996 main 518 462 _____P________ -1 -17.3571 61.6996 99 11 245
1910011S16066 1910 4 SI MM NOT_NAMED 1910-01-13 03:00:00 NR -17.5842 61.1926 main 462 407 _____P________ -1 -17.5842 61.1926 99 11 245
1910011S16066 1910 4 SI MM NOT_NAMED 1910-01-13 06:00:00 NR -17.8000 60.7000 reunion main 407 360 _____O________ -1 -17.8000 60.7000 99 9.90000 10 246
1910011S16066 1910 4 SI MM NOT_NAMED 1910-01-13 09:00:00 NR -17.9700 60.2825 main 360 321 _____P________ -1 -17.9700 60.2825 99 9 247
1910011S16066 1910 4 SI MM NOT_NAMED 1910-01-13 12:00:00 NR -18.1307 59.8756 main 321 276 _____P________ -1 -18.1307 59.8756 99 8 248
1910011S16066 1910 4 SI MM NOT_NAMED 1910-01-13 15:00:00 NR -18.2857 59.4747 main 276 240 _____P________ -1 -18.2857 59.4747 99 8 248
1910011S16066 1910 4 SI MM NOT_NAMED 1910-01-13 18:00:00 NR -18.4386 59.0754 main 240 197 _____P________ -1 -18.4386 59.0754 99 8 248
1910011S16066 1910 4 SI MM NOT_NAMED 1910-01-13 21:00:00 NR -18.5930 58.6729 main 197 168 _____P________ -1 -18.5930 58.6729 99 8 248
1910011S16066 1910 4 SI MM NOT_NAMED 1910-01-14 00:00:00 NR -18.7524 58.2627 main 158 135 _____P________ -1 -18.7524 58.2627 99 9 247
1910011S16066 1910 4 SI MM NOT_NAMED 1910-01-14 03:00:00 NR -18.9202 57.8400 main 134 111 _____P________ -1 -18.9202 57.8400 99 9 247
1910011S16066 1910 4 SI MM NOT_NAMED 1910-01-14 06:00:00 NR -19.1000 57.4000 reunion main 112 103 _____O________ -1 -19.1000 57.4000 99 9.90000 10 248
1910011S16066 1910 4 SI MM NOT_NAMED 1910-01-14 09:00:00 NR -19.2760 56.8937 main 109 109 _____P________ -1 -19.2760 56.8937 99 10 250
1910011S16066 1910 4 SI MM NOT_NAMED 1910-01-14 12:00:00 NR -19.4594 56.3668 main 133 133 _____P________ -1 -19.4594 56.3668 99 11 249
1910011S16066 1910 4 SI MM NOT_NAMED 1910-01-14 15:00:00 NR -19.6532 55.8286 main 145 134 _____P________ -1 -19.6532 55.8286 99 11 248
1910011S16066 1910 4 SI MM NOT_NAMED 1910-01-14 18:00:00 NR -19.8609 55.2887 main 123 113 _____P________ -1 -19.8609 55.2887 99 11 247
1910011S16066 1910 4 SI MM NOT_NAMED 1910-01-14 21:00:00 NR -20.0858 54.7564 main 113 113 _____P________ -1 -20.0858 54.7564 99 11 244
1910011S16066 1910 4 SI MM NOT_NAMED 1910-01-15 00:00:00 NR -20.3315 54.2413 main 137 130 _____P________ -1 -20.3315 54.2413 99 11 241
1910011S16066 1910 4 SI MM NOT_NAMED 1910-01-15 03:00:00 NR -20.6017 53.7526 main 155 155 _____P________ -1 -20.6017 53.7526 99 11 237
1910011S16066 1910 4 SI MM NOT_NAMED 1910-01-15 06:00:00 NR -20.9000 53.3000 reunion main 198 198 _____O________ -1 -20.9000 53.3000 99 9.90000 11 231
1910011S16066 1910 4 SI MM NOT_NAMED 1910-01-15 09:00:00 NR -21.2758 52.8730 main 239 239 _____P________ -1 -21.2758 52.8730 99 11 224
1910011S16066 1910 4 SI MM NOT_NAMED 1910-01-15 12:00:00 NR -21.6868 52.4745 main 287 287 _____P________ -1 -21.6868 52.4745 99 11 220
1910011S16066 1910 4 SI MM NOT_NAMED 1910-01-15 15:00:00 NR -22.1189 52.1063 main 339 339 _____P________ -1 -22.1189 52.1063 99 11 217
1910011S16066 1910 4 SI MM NOT_NAMED 1910-01-15 18:00:00 NR -22.5580 51.7706 main 381 360 _____P________ -1 -22.5580 51.7706 99 11 214
1910011S16066 1910 4 SI MM NOT_NAMED 1910-01-15 21:00:00 NR -22.9898 51.4695 main 364 349 _____P________ -1 -22.9898 51.4695 99 10 212
1910011S16066 1910 4 SI MM NOT_NAMED 1910-01-16 00:00:00 NR -23.4003 51.2057 main 351 337 _____P________ -1 -23.4003 51.2057 99 9 210
1910011S16066 1910 4 SI MM NOT_NAMED 1910-01-16 03:00:00 NR -23.7750 50.9816 main 339 322 _____P________ -1 -23.7750 50.9816 99 8 208
1910011S16066 1910 4 SI MM NOT_NAMED 1910-01-16 06:00:00 NR -24.1000 50.8000 reunion main 324 317 _____O________ -1 -24.1000 50.8000 99 9.90000 7 206
1910011S16066 1910 4 SI MM NOT_NAMED 1910-01-16 09:00:00 NR -24.3646 50.6622 main 324 315 _____P________ -1 -24.3646 50.6622 99 5 204
1910011S16066 1910 4 SI MM NOT_NAMED 1910-01-16 12:00:00 NR -24.5733 50.5642 main 321 311 _____P________ -1 -24.5733 50.5642 99 4 202
1910011S16066 1910 4 SI MM NOT_NAMED 1910-01-16 15:00:00 NR -24.7341 50.5006 main 313 313 _____P________ -1 -24.7341 50.5006 99 3 198
1910011S16066 1910 4 SI MM NOT_NAMED 1910-01-16 18:00:00 NR -24.8550 50.4658 main 319 319 _____P________ -1 -24.8550 50.4658 99 2 190
1910011S16066 1910 4 SI MM NOT_NAMED 1910-01-16 21:00:00 NR -24.9441 50.4541 main 319 319 _____P________ -1 -24.9441 50.4541 99 2 0
1910011S16066 1910 4 SI MM NOT_NAMED 1910-01-17 00:00:00 NR -25.0094 50.4597 main 323 323 _____P________ -1 -25.0094 50.4597 99 1 0
1910011S16066 1910 4 SI MM NOT_NAMED 1910-01-17 03:00:00 NR -25.0587 50.4770 main 327 327 _____P________ -1 -25.0587 50.4770 99 1 159
1910011S16066 1910 4 SI MM NOT_NAMED 1910-01-17 06:00:00 NR -25.1000 50.5000 reunion main 327 _____O________ -1 -25.1000 50.5000 99 9.90000 1 0

IBTrACS Databaseについて

本データベースは、米国NOAAが公開する1842年以降の世界の熱帯低気圧のベストトラックデータアーカイブInternational Best Track Archive for Climate Stewardship (IBTrACS)を、ウェブで閲覧しやすい形式に変換したものです。

最終更新日:2021-10-08